sensor_id;sensor_type;location;lat;lon;timestamp;P1;durP1;ratioP1;P2;durP2;ratioP2
68108;SDS011;54893;49.864;19.084;2023-02-28T00:03:37;33.93;;;11.33;;
68108;SDS011;54893;49.864;19.084;2023-02-28T00:08:38;37.57;;;11.63;;
68108;SDS011;54893;49.864;19.084;2023-02-28T00:13:40;31.40;;;11.40;;
68108;SDS011;54893;49.864;19.084;2023-02-28T00:18:42;28.00;;;9.93;;
68108;SDS011;54893;49.864;19.084;2023-02-28T00:23:43;29.47;;;10.23;;
68108;SDS011;54893;49.864;19.084;2023-02-28T00:28:44;29.43;;;9.97;;
68108;SDS011;54893;49.864;19.084;2023-02-28T00:33:44;28.23;;;10.20;;
68108;SDS011;54893;49.864;19.084;2023-02-28T00:38:44;34.30;;;10.00;;
68108;SDS011;54893;49.864;19.084;2023-02-28T00:43:45;32.87;;;11.93;;
68108;SDS011;54893;49.864;19.084;2023-02-28T00:48:45;28.13;;;10.20;;
68108;SDS011;54893;49.864;19.084;2023-02-28T00:53:45;27.80;;;9.20;;
68108;SDS011;54893;49.864;19.084;2023-02-28T00:58:46;27.30;;;10.17;;
68108;SDS011;54893;49.864;19.084;2023-02-28T01:03:46;32.67;;;10.50;;
68108;SDS011;54893;49.864;19.084;2023-02-28T01:08:46;26.27;;;10.33;;
68108;SDS011;54893;49.864;19.084;2023-02-28T01:13:47;24.20;;;9.10;;
68108;SDS011;54893;49.864;19.084;2023-02-28T01:18:47;30.17;;;10.73;;
68108;SDS011;54893;49.864;19.084;2023-02-28T01:23:48;29.17;;;9.67;;
68108;SDS011;54893;49.864;19.084;2023-02-28T01:28:49;33.27;;;11.97;;
68108;SDS011;54893;49.864;19.084;2023-02-28T01:33:50;34.50;;;11.00;;
68108;SDS011;54893;49.864;19.084;2023-02-28T01:38:51;27.57;;;10.87;;
68108;SDS011;54893;49.864;19.084;2023-02-28T01:43:53;28.85;;;11.23;;
68108;SDS011;54893;49.864;19.084;2023-02-28T01:49:14;28.67;;;11.45;;
68108;SDS011;54893;49.864;19.084;2023-02-28T01:54:22;31.63;;;11.52;;
68108;SDS011;54893;49.864;19.084;2023-02-28T01:59:51;29.20;;;10.97;;
68108;SDS011;54893;49.864;19.084;2023-02-28T02:04:59;32.13;;;11.38;;
68108;SDS011;54893;49.864;19.084;2023-02-28T02:15:08;36.58;;;11.90;;
68108;SDS011;54893;49.864;19.084;2023-02-28T02:26:06;34.43;;;13.03;;
68108;SDS011;54893;49.864;19.084;2023-02-28T02:36:44;36.63;;;12.18;;
68108;SDS011;54893;49.864;19.084;2023-02-28T02:41:51;27.23;;;10.57;;
68108;SDS011;54893;49.864;19.084;2023-02-28T02:46:54;31.98;;;12.13;;
68108;SDS011;54893;49.864;19.084;2023-02-28T02:52:03;31.20;;;11.70;;
68108;SDS011;54893;49.864;19.084;2023-02-28T02:57:07;28.00;;;9.68;;
68108;SDS011;54893;49.864;19.084;2023-02-28T03:02:11;35.50;;;13.00;;
68108;SDS011;54893;49.864;19.084;2023-02-28T03:07:14;35.83;;;13.63;;
68108;SDS011;54893;49.864;19.084;2023-02-28T03:12:15;38.43;;;12.80;;
68108;SDS011;54893;49.864;19.084;2023-02-28T03:17:32;35.53;;;12.00;;
68108;SDS011;54893;49.864;19.084;2023-02-28T03:27:55;40.88;;;14.32;;
68108;SDS011;54893;49.864;19.084;2023-02-28T03:32:58;43.22;;;14.77;;
68108;SDS011;54893;49.864;19.084;2023-02-28T03:38:18;43.30;;;14.83;;
68108;SDS011;54893;49.864;19.084;2023-02-28T03:43:26;38.28;;;15.18;;
68108;SDS011;54893;49.864;19.084;2023-02-28T03:48:41;43.78;;;15.27;;
68108;SDS011;54893;49.864;19.084;2023-02-28T03:53:44;39.38;;;14.32;;
68108;SDS011;54893;49.864;19.084;2023-02-28T04:04:02;45.67;;;16.43;;
68108;SDS011;54893;49.864;19.084;2023-02-28T04:09:04;42.55;;;16.75;;
68108;SDS011;54893;49.864;19.084;2023-02-28T04:14:07;41.83;;;16.20;;
68108;SDS011;54893;49.864;19.084;2023-02-28T04:19:09;66.22;;;21.92;;
68108;SDS011;54893;49.864;19.084;2023-02-28T04:24:14;58.55;;;18.70;;
68108;SDS011;54893;49.864;19.084;2023-02-28T04:29:20;56.57;;;17.37;;
68108;SDS011;54893;49.864;19.084;2023-02-28T04:34:22;54.70;;;18.05;;
68108;SDS011;54893;49.864;19.084;2023-02-28T04:39:23;61.67;;;19.43;;
68108;SDS011;54893;49.864;19.084;2023-02-28T04:44:24;64.40;;;20.80;;
68108;SDS011;54893;49.864;19.084;2023-02-28T04:49:24;103.27;;;29.73;;
68108;SDS011;54893;49.864;19.084;2023-02-28T04:54:25;72.53;;;22.77;;
68108;SDS011;54893;49.864;19.084;2023-02-28T04:59:25;63.57;;;20.40;;
68108;SDS011;54893;49.864;19.084;2023-02-28T05:04:25;85.30;;;24.53;;
68108;SDS011;54893;49.864;19.084;2023-02-28T05:09:26;51.07;;;17.83;;
68108;SDS011;54893;49.864;19.084;2023-02-28T05:14:27;58.27;;;21.30;;
68108;SDS011;54893;49.864;19.084;2023-02-28T05:19:27;69.63;;;23.97;;
68108;SDS011;54893;49.864;19.084;2023-02-28T05:24:27;78.53;;;24.93;;
68108;SDS011;54893;49.864;19.084;2023-02-28T05:29:28;73.93;;;24.07;;
68108;SDS011;54893;49.864;19.084;2023-02-28T05:34:28;61.42;;;22.17;;
68108;SDS011;54893;49.864;19.084;2023-02-28T05:39:28;92.53;;;33.03;;
68108;SDS011;54893;49.864;19.084;2023-02-28T05:44:29;83.47;;;25.60;;
68108;SDS011;54893;49.864;19.084;2023-02-28T05:49:29;66.47;;;23.83;;
68108;SDS011;54893;49.864;19.084;2023-02-28T05:54:29;64.20;;;24.30;;
68108;SDS011;54893;49.864;19.084;2023-02-28T05:59:30;77.70;;;26.30;;
68108;SDS011;54893;49.864;19.084;2023-02-28T06:04:30;103.25;;;30.17;;
68108;SDS011;54893;49.864;19.084;2023-02-28T06:09:30;73.45;;;24.98;;
68108;SDS011;54893;49.864;19.084;2023-02-28T06:14:31;81.13;;;27.67;;
68108;SDS011;54893;49.864;19.084;2023-02-28T06:19:33;85.25;;;28.92;;
68108;SDS011;54893;49.864;19.084;2023-02-28T06:24:33;84.90;;;28.63;;
68108;SDS011;54893;49.864;19.084;2023-02-28T06:29:34;97.67;;;36.20;;
68108;SDS011;54893;49.864;19.084;2023-02-28T06:34:35;82.57;;;27.40;;
68108;SDS011;54893;49.864;19.084;2023-02-28T06:39:35;93.83;;;34.87;;
68108;SDS011;54893;49.864;19.084;2023-02-28T06:44:38;82.60;;;28.77;;
68108;SDS011;54893;49.864;19.084;2023-02-28T06:49:38;83.50;;;31.92;;
68108;SDS011;54893;49.864;19.084;2023-02-28T06:54:39;79.83;;;29.00;;
68108;SDS011;54893;49.864;19.084;2023-02-28T06:59:39;64.87;;;23.17;;
68108;SDS011;54893;49.864;19.084;2023-02-28T07:04:40;79.83;;;28.67;;
68108;SDS011;54893;49.864;19.084;2023-02-28T07:09:43;80.55;;;26.65;;
68108;SDS011;54893;49.864;19.084;2023-02-28T07:14:43;72.70;;;26.25;;
68108;SDS011;54893;49.864;19.084;2023-02-28T07:19:44;60.78;;;21.85;;
68108;SDS011;54893;49.864;19.084;2023-02-28T07:24:44;60.47;;;22.93;;
68108;SDS011;54893;49.864;19.084;2023-02-28T07:29:44;60.77;;;21.47;;
68108;SDS011;54893;49.864;19.084;2023-02-28T07:34:45;58.23;;;20.77;;
68108;SDS011;54893;49.864;19.084;2023-02-28T07:39:45;59.65;;;22.75;;
68108;SDS011;54893;49.864;19.084;2023-02-28T07:44:46;54.22;;;21.75;;
68108;SDS011;54893;49.864;19.084;2023-02-28T07:49:46;46.87;;;17.43;;
68108;SDS011;54893;49.864;19.084;2023-02-28T07:54:46;49.22;;;18.50;;
68108;SDS011;54893;49.864;19.084;2023-02-28T07:59:47;59.50;;;21.53;;
68108;SDS011;54893;49.864;19.084;2023-02-28T08:04:47;53.83;;;19.17;;
68108;SDS011;54893;49.864;19.084;2023-02-28T08:09:48;46.60;;;16.88;;
68108;SDS011;54893;49.864;19.084;2023-02-28T08:14:48;48.70;;;18.33;;
68108;SDS011;54893;49.864;19.084;2023-02-28T08:19:49;32.63;;;12.50;;
68108;SDS011;54893;49.864;19.084;2023-02-28T08:24:49;35.00;;;14.50;;
68108;SDS011;54893;49.864;19.084;2023-02-28T08:29:49;33.20;;;12.90;;
68108;SDS011;54893;49.864;19.084;2023-02-28T08:34:49;30.52;;;12.30;;
68108;SDS011;54893;49.864;19.084;2023-02-28T08:39:50;30.67;;;11.97;;
68108;SDS011;54893;49.864;19.084;2023-02-28T08:44:51;25.52;;;11.13;;
68108;SDS011;54893;49.864;19.084;2023-02-28T08:49:51;24.17;;;9.60;;
68108;SDS011;54893;49.864;19.084;2023-02-28T08:54:52;21.00;;;8.50;;
68108;SDS011;54893;49.864;19.084;2023-02-28T08:59:52;22.67;;;9.10;;
68108;SDS011;54893;49.864;19.084;2023-02-28T09:04:52;20.83;;;9.03;;
68108;SDS011;54893;49.864;19.084;2023-02-28T09:09:53;18.50;;;7.03;;
68108;SDS011;54893;49.864;19.084;2023-02-28T09:14:54;14.73;;;6.77;;
68108;SDS011;54893;49.864;19.084;2023-02-28T09:19:54;19.43;;;7.43;;
68108;SDS011;54893;49.864;19.084;2023-02-28T09:24:55;16.95;;;7.05;;
68108;SDS011;54893;49.864;19.084;2023-02-28T09:29:55;16.87;;;6.20;;
68108;SDS011;54893;49.864;19.084;2023-02-28T09:34:56;22.93;;;8.20;;
68108;SDS011;54893;49.864;19.084;2023-02-28T09:39:56;18.27;;;7.87;;
68108;SDS011;54893;49.864;19.084;2023-02-28T09:44:57;17.55;;;7.00;;
68108;SDS011;54893;49.864;19.084;2023-02-28T09:55:29;18.23;;;8.10;;
68108;SDS011;54893;49.864;19.084;2023-02-28T10:00:34;22.10;;;9.73;;
68108;SDS011;54893;49.864;19.084;2023-02-28T10:06:22;22.60;;;9.98;;
68108;SDS011;54893;49.864;19.084;2023-02-28T10:11:06;23.55;;;9.60;;
68108;SDS011;54893;49.864;19.084;2023-02-28T10:16:11;22.65;;;9.02;;
68108;SDS011;54893;49.864;19.084;2023-02-28T10:26:28;24.17;;;9.70;;
68108;SDS011;54893;49.864;19.084;2023-02-28T10:31:31;23.20;;;10.13;;
68108;SDS011;54893;49.864;19.084;2023-02-28T10:36:31;25.43;;;10.47;;
68108;SDS011;54893;49.864;19.084;2023-02-28T10:41:32;24.80;;;9.50;;
68108;SDS011;54893;49.864;19.084;2023-02-28T10:46:36;20.77;;;8.27;;
68108;SDS011;54893;49.864;19.084;2023-02-28T10:51:39;25.17;;;10.35;;
68108;SDS011;54893;49.864;19.084;2023-02-28T10:56:40;19.20;;;7.77;;
68108;SDS011;54893;49.864;19.084;2023-02-28T11:01:45;17.95;;;8.52;;
68108;SDS011;54893;49.864;19.084;2023-02-28T11:06:58;23.47;;;9.00;;
68108;SDS011;54893;49.864;19.084;2023-02-28T11:12:01;20.17;;;8.25;;
68108;SDS011;54893;49.864;19.084;2023-02-28T11:17:14;19.95;;;8.38;;
68108;SDS011;54893;49.864;19.084;2023-02-28T11:22:25;20.07;;;8.07;;
68108;SDS011;54893;49.864;19.084;2023-02-28T11:32:31;21.13;;;8.53;;
68108;SDS011;54893;49.864;19.084;2023-02-28T11:37:32;22.63;;;9.63;;
68108;SDS011;54893;49.864;19.084;2023-02-28T11:42:39;18.73;;;7.03;;
68108;SDS011;54893;49.864;19.084;2023-02-28T12:14:51;21.05;;;8.65;;
68108;SDS011;54893;49.864;19.084;2023-02-28T12:25:48;19.05;;;8.30;;
68108;SDS011;54893;49.864;19.084;2023-02-28T12:31:09;18.77;;;8.10;;
68108;SDS011;54893;49.864;19.084;2023-02-28T12:36:16;19.98;;;7.88;;
68108;SDS011;54893;49.864;19.084;2023-02-28T12:46:38;18.10;;;7.30;;
68108;SDS011;54893;49.864;19.084;2023-02-28T12:51:49;19.25;;;8.48;;
68108;SDS011;54893;49.864;19.084;2023-02-28T12:56:56;17.53;;;8.13;;
68108;SDS011;54893;49.864;19.084;2023-02-28T13:12:23;19.80;;;8.00;;
68108;SDS011;54893;49.864;19.084;2023-02-28T13:17:24;17.10;;;7.20;;
68108;SDS011;54893;49.864;19.084;2023-02-28T13:22:47;27.70;;;10.10;;
68108;SDS011;54893;49.864;19.084;2023-02-28T13:27:49;18.63;;;8.17;;
68108;SDS011;54893;49.864;19.084;2023-02-28T13:38:35;21.13;;;8.20;;
68108;SDS011;54893;49.864;19.084;2023-02-28T14:05:37;16.42;;;6.93;;
68108;SDS011;54893;49.864;19.084;2023-02-28T14:15:46;21.08;;;7.88;;
68108;SDS011;54893;49.864;19.084;2023-02-28T14:20:57;21.60;;;7.63;;
68108;SDS011;54893;49.864;19.084;2023-02-28T14:31:25;17.63;;;7.35;;
68108;SDS011;54893;49.864;19.084;2023-02-28T14:36:33;22.08;;;9.15;;
68108;SDS011;54893;49.864;19.084;2023-02-28T14:41:37;22.88;;;9.18;;
68108;SDS011;54893;49.864;19.084;2023-02-28T14:46:40;28.57;;;10.63;;
68108;SDS011;54893;49.864;19.084;2023-02-28T14:51:41;73.65;;;18.52;;
68108;SDS011;54893;49.864;19.084;2023-02-28T14:56:42;25.53;;;9.37;;
68108;SDS011;54893;49.864;19.084;2023-02-28T15:01:42;40.20;;;9.63;;
68108;SDS011;54893;49.864;19.084;2023-02-28T15:06:43;32.05;;;10.75;;
68108;SDS011;54893;49.864;19.084;2023-02-28T15:11:47;42.20;;;16.73;;
68108;SDS011;54893;49.864;19.084;2023-02-28T15:16:52;100.37;;;42.77;;
68108;SDS011;54893;49.864;19.084;2023-02-28T15:21:59;54.50;;;16.83;;
68108;SDS011;54893;49.864;19.084;2023-02-28T15:27:05;306.30;;;140.60;;
68108;SDS011;54893;49.864;19.084;2023-02-28T15:32:14;278.10;;;115.30;;
68108;SDS011;54893;49.864;19.084;2023-02-28T15:42:32;63.23;;;37.37;;
68108;SDS011;54893;49.864;19.084;2023-02-28T15:47:32;54.37;;;29.23;;
68108;SDS011;54893;49.864;19.084;2023-02-28T15:52:34;33.80;;;14.13;;
68108;SDS011;54893;49.864;19.084;2023-02-28T15:57:40;26.65;;;11.43;;
68108;SDS011;54893;49.864;19.084;2023-02-28T16:02:41;36.73;;;13.77;;
68108;SDS011;54893;49.864;19.084;2023-02-28T16:07:42;27.00;;;10.80;;
68108;SDS011;54893;49.864;19.084;2023-02-28T16:12:43;32.67;;;12.70;;
68108;SDS011;54893;49.864;19.084;2023-02-28T16:17:44;49.50;;;16.07;;
68108;SDS011;54893;49.864;19.084;2023-02-28T16:22:46;39.85;;;13.20;;
68108;SDS011;54893;49.864;19.084;2023-02-28T16:27:47;107.53;;;32.43;;
68108;SDS011;54893;49.864;19.084;2023-02-28T16:32:50;68.60;;;20.30;;
68108;SDS011;54893;49.864;19.084;2023-02-28T16:37:51;114.35;;;36.60;;
68108;SDS011;54893;49.864;19.084;2023-02-28T16:42:53;168.65;;;41.70;;
68108;SDS011;54893;49.864;19.084;2023-02-28T16:47:57;125.93;;;35.33;;
68108;SDS011;54893;49.864;19.084;2023-02-28T16:52:58;143.10;;;39.53;;
68108;SDS011;54893;49.864;19.084;2023-02-28T16:57:59;141.83;;;42.10;;
68108;SDS011;54893;49.864;19.084;2023-02-28T17:03:01;172.50;;;51.55;;
68108;SDS011;54893;49.864;19.084;2023-02-28T17:08:02;177.55;;;61.63;;
68108;SDS011;54893;49.864;19.084;2023-02-28T17:13:03;116.87;;;38.83;;
68108;SDS011;54893;49.864;19.084;2023-02-28T17:18:03;92.70;;;27.70;;
68108;SDS011;54893;49.864;19.084;2023-02-28T17:23:04;96.63;;;35.33;;
68108;SDS011;54893;49.864;19.084;2023-02-28T17:28:04;114.43;;;35.90;;
68108;SDS011;54893;49.864;19.084;2023-02-28T17:33:05;105.43;;;29.67;;
68108;SDS011;54893;49.864;19.084;2023-02-28T17:38:07;116.90;;;33.13;;
68108;SDS011;54893;49.864;19.084;2023-02-28T17:43:15;70.35;;;22.33;;
68108;SDS011;54893;49.864;19.084;2023-02-28T17:48:15;116.50;;;35.80;;
68108;SDS011;54893;49.864;19.084;2023-02-28T17:53:16;72.53;;;25.65;;
68108;SDS011;54893;49.864;19.084;2023-02-28T17:58:17;83.35;;;26.80;;
68108;SDS011;54893;49.864;19.084;2023-02-28T18:03:18;117.80;;;39.97;;
68108;SDS011;54893;49.864;19.084;2023-02-28T18:08:19;107.80;;;38.53;;
68108;SDS011;54893;49.864;19.084;2023-02-28T18:13:20;116.57;;;41.67;;
68108;SDS011;54893;49.864;19.084;2023-02-28T18:18:20;118.97;;;41.37;;
68108;SDS011;54893;49.864;19.084;2023-02-28T18:23:20;103.13;;;36.33;;
68108;SDS011;54893;49.864;19.084;2023-02-28T18:28:21;121.63;;;44.67;;
68108;SDS011;54893;49.864;19.084;2023-02-28T18:33:21;155.77;;;51.93;;
68108;SDS011;54893;49.864;19.084;2023-02-28T18:38:21;171.47;;;53.27;;
68108;SDS011;54893;49.864;19.084;2023-02-28T18:43:22;191.52;;;58.42;;
68108;SDS011;54893;49.864;19.084;2023-02-28T18:48:23;201.45;;;58.30;;
68108;SDS011;54893;49.864;19.084;2023-02-28T18:53:23;204.83;;;60.23;;
68108;SDS011;54893;49.864;19.084;2023-02-28T18:58:24;206.47;;;61.80;;
68108;SDS011;54893;49.864;19.084;2023-02-28T19:03:24;197.03;;;61.87;;
68108;SDS011;54893;49.864;19.084;2023-02-28T19:08:25;118.17;;;43.23;;
68108;SDS011;54893;49.864;19.084;2023-02-28T19:13:26;121.75;;;43.00;;
68108;SDS011;54893;49.864;19.084;2023-02-28T19:18:26;105.90;;;39.20;;
68108;SDS011;54893;49.864;19.084;2023-02-28T19:23:27;101.50;;;35.13;;
68108;SDS011;54893;49.864;19.084;2023-02-28T19:28:30;97.00;;;31.80;;
68108;SDS011;54893;49.864;19.084;2023-02-28T19:33:30;102.40;;;37.50;;
68108;SDS011;54893;49.864;19.084;2023-02-28T19:38:30;112.23;;;38.50;;
68108;SDS011;54893;49.864;19.084;2023-02-28T19:43:31;111.93;;;38.05;;
68108;SDS011;54893;49.864;19.084;2023-02-28T19:48:31;112.10;;;39.53;;
68108;SDS011;54893;49.864;19.084;2023-02-28T19:53:32;115.80;;;42.53;;
68108;SDS011;54893;49.864;19.084;2023-02-28T19:58:33;121.10;;;43.93;;
68108;SDS011;54893;49.864;19.084;2023-02-28T20:03:34;105.22;;;35.67;;
68108;SDS011;54893;49.864;19.084;2023-02-28T20:08:35;101.17;;;34.87;;
68108;SDS011;54893;49.864;19.084;2023-02-28T20:13:37;108.40;;;37.97;;
68108;SDS011;54893;49.864;19.084;2023-02-28T20:18:37;94.47;;;28.77;;
68108;SDS011;54893;49.864;19.084;2023-02-28T20:23:39;88.28;;;28.08;;
68108;SDS011;54893;49.864;19.084;2023-02-28T20:28:40;127.43;;;43.60;;
68108;SDS011;54893;49.864;19.084;2023-02-28T20:33:42;109.15;;;41.28;;
68108;SDS011;54893;49.864;19.084;2023-02-28T20:38:43;73.30;;;25.27;;
68108;SDS011;54893;49.864;19.084;2023-02-28T20:43:44;72.97;;;23.30;;
68108;SDS011;54893;49.864;19.084;2023-02-28T20:48:44;108.10;;;36.33;;
68108;SDS011;54893;49.864;19.084;2023-02-28T20:53:45;82.93;;;28.50;;
68108;SDS011;54893;49.864;19.084;2023-02-28T20:58:46;89.43;;;32.20;;
68108;SDS011;54893;49.864;19.084;2023-02-28T21:03:48;384.80;;;74.63;;
68108;SDS011;54893;49.864;19.084;2023-02-28T21:08:49;468.88;;;92.80;;
68108;SDS011;54893;49.864;19.084;2023-02-28T21:13:50;153.02;;;46.08;;
68108;SDS011;54893;49.864;19.084;2023-02-28T21:18:52;230.23;;;62.35;;
68108;SDS011;54893;49.864;19.084;2023-02-28T21:23:53;136.90;;;40.13;;
68108;SDS011;54893;49.864;19.084;2023-02-28T21:28:54;102.07;;;28.40;;
68108;SDS011;54893;49.864;19.084;2023-02-28T21:33:57;180.82;;;43.72;;
68108;SDS011;54893;49.864;19.084;2023-02-28T21:38:59;156.70;;;37.20;;
68108;SDS011;54893;49.864;19.084;2023-02-28T21:44:01;112.53;;;32.80;;
68108;SDS011;54893;49.864;19.084;2023-02-28T21:49:02;98.65;;;34.15;;
68108;SDS011;54893;49.864;19.084;2023-02-28T21:54:03;97.70;;;31.60;;
68108;SDS011;54893;49.864;19.084;2023-02-28T21:59:03;208.43;;;45.03;;
68108;SDS011;54893;49.864;19.084;2023-02-28T22:04:06;118.07;;;30.80;;
68108;SDS011;54893;49.864;19.084;2023-02-28T22:09:09;107.25;;;30.35;;
68108;SDS011;54893;49.864;19.084;2023-02-28T22:14:09;93.83;;;28.97;;
68108;SDS011;54893;49.864;19.084;2023-02-28T22:19:10;122.93;;;36.10;;
68108;SDS011;54893;49.864;19.084;2023-02-28T22:24:11;119.78;;;38.00;;
68108;SDS011;54893;49.864;19.084;2023-02-28T22:29:11;189.07;;;51.23;;
68108;SDS011;54893;49.864;19.084;2023-02-28T22:34:11;177.90;;;47.63;;
68108;SDS011;54893;49.864;19.084;2023-02-28T22:39:12;177.93;;;49.20;;
68108;SDS011;54893;49.864;19.084;2023-02-28T22:44:12;276.07;;;68.37;;
68108;SDS011;54893;49.864;19.084;2023-02-28T22:49:13;127.87;;;40.47;;
68108;SDS011;54893;49.864;19.084;2023-02-28T22:54:13;160.90;;;45.17;;
68108;SDS011;54893;49.864;19.084;2023-02-28T22:59:13;130.32;;;36.65;;
68108;SDS011;54893;49.864;19.084;2023-02-28T23:04:14;117.37;;;39.30;;
68108;SDS011;54893;49.864;19.084;2023-02-28T23:09:15;125.03;;;41.22;;
68108;SDS011;54893;49.864;19.084;2023-02-28T23:14:17;127.30;;;40.40;;
68108;SDS011;54893;49.864;19.084;2023-02-28T23:19:20;137.55;;;44.22;;
68108;SDS011;54893;49.864;19.084;2023-02-28T23:24:23;129.43;;;45.33;;
68108;SDS011;54893;49.864;19.084;2023-02-28T23:29:26;138.23;;;44.33;;
68108;SDS011;54893;49.864;19.084;2023-02-28T23:34:26;148.05;;;44.80;;
68108;SDS011;54893;49.864;19.084;2023-02-28T23:39:29;159.50;;;49.33;;
68108;SDS011;54893;49.864;19.084;2023-02-28T23:44:30;157.35;;;51.38;;
68108;SDS011;54893;49.864;19.084;2023-02-28T23:49:31;168.10;;;53.87;;
68108;SDS011;54893;49.864;19.084;2023-02-28T23:54:31;150.07;;;52.72;;
68108;SDS011;54893;49.864;19.084;2023-02-28T23:59:32;154.07;;;51.43;;
